sensor_id;sensor_type;location;lat;lon;timestamp;pressure;altitude;pressure_sealevel;temperature;humidity
61908;BME280;47864;52.526;19.672;2022-11-25T00:01:41;100939.06;;;0.51;100.00
61908;BME280;47864;52.526;19.672;2022-11-25T00:03:44;100929.28;;;0.72;100.00
61908;BME280;47864;52.526;19.672;2022-11-25T00:05:46;100939.88;;;0.69;100.00
61908;BME280;47864;52.526;19.672;2022-11-25T00:07:48;100927.28;;;0.60;100.00
61908;BME280;47864;52.526;19.672;2022-11-25T00:09:49;100928.53;;;0.53;100.00
61908;BME280;47864;52.526;19.672;2022-11-25T00:11:51;100925.94;;;0.53;100.00
61908;BME280;47864;52.526;19.672;2022-11-25T00:13:54;100926.44;;;0.59;100.00
61908;BME280;47864;52.526;19.672;2022-11-25T00:16:04;100925.91;;;0.70;100.00
61908;BME280;47864;52.526;19.672;2022-11-25T00:18:06;100922.28;;;0.72;100.00
61908;BME280;47864;52.526;19.672;2022-11-25T00:20:08;100918.59;;;0.76;100.00
61908;BME280;47864;52.526;19.672;2022-11-25T00:22:10;100913.88;;;0.83;100.00
61908;BME280;47864;52.526;19.672;2022-11-25T00:24:13;100916.75;;;0.79;100.00
61908;BME280;47864;52.526;19.672;2022-11-25T00:26:15;100906.94;;;0.66;100.00
61908;BME280;47864;52.526;19.672;2022-11-25T00:28:17;100900.72;;;0.69;100.00
61908;BME280;47864;52.526;19.672;2022-11-25T00:30:19;100903.28;;;0.53;100.00
61908;BME280;47864;52.526;19.672;2022-11-25T00:32:21;100895.09;;;0.44;100.00
61908;BME280;47864;52.526;19.672;2022-11-25T00:34:22;100906.81;;;0.52;100.00
61908;BME280;47864;52.526;19.672;2022-11-25T00:36:26;100921.94;;;0.63;100.00
61908;BME280;47864;52.526;19.672;2022-11-25T00:38:29;100915.00;;;0.62;100.00
61908;BME280;47864;52.526;19.672;2022-11-25T00:40:30;100914.56;;;0.54;100.00
61908;BME280;47864;52.526;19.672;2022-11-25T00:42:32;100922.28;;;0.40;100.00
61908;BME280;47864;52.526;19.672;2022-11-25T00:44:34;100930.38;;;0.33;100.00
61908;BME280;47864;52.526;19.672;2022-11-25T00:46:37;100927.50;;;0.22;100.00
61908;BME280;47864;52.526;19.672;2022-11-25T00:48:38;100920.59;;;0.38;100.00
61908;BME280;47864;52.526;19.672;2022-11-25T00:50:41;100923.25;;;0.54;100.00
61908;BME280;47864;52.526;19.672;2022-11-25T00:52:43;100917.50;;;0.48;100.00
61908;BME280;47864;52.526;19.672;2022-11-25T00:54:45;100923.16;;;0.56;100.00
61908;BME280;47864;52.526;19.672;2022-11-25T00:56:48;100932.13;;;0.67;100.00
61908;BME280;47864;52.526;19.672;2022-11-25T00:58:52;100934.06;;;0.64;100.00
61908;BME280;47864;52.526;19.672;2022-11-25T01:00:54;100925.59;;;0.59;100.00
61908;BME280;47864;52.526;19.672;2022-11-25T01:02:56;100930.53;;;0.65;100.00
61908;BME280;47864;52.526;19.672;2022-11-25T01:04:57;100935.28;;;0.74;100.00
61908;BME280;47864;52.526;19.672;2022-11-25T01:06:59;100939.50;;;0.92;100.00
61908;BME280;47864;52.526;19.672;2022-11-25T01:09:02;100938.16;;;0.85;100.00
61908;BME280;47864;52.526;19.672;2022-11-25T01:11:09;100947.38;;;0.75;100.00
61908;BME280;47864;52.526;19.672;2022-11-25T01:13:12;100940.66;;;0.54;100.00
61908;BME280;47864;52.526;19.672;2022-11-25T01:15:14;100945.13;;;0.34;100.00
61908;BME280;47864;52.526;19.672;2022-11-25T01:17:15;100950.66;;;0.28;100.00
61908;BME280;47864;52.526;19.672;2022-11-25T01:19:18;100938.72;;;0.24;100.00
61908;BME280;47864;52.526;19.672;2022-11-25T01:21:23;100947.59;;;0.37;100.00
61908;BME280;47864;52.526;19.672;2022-11-25T01:23:27;100943.22;;;0.38;100.00
61908;BME280;47864;52.526;19.672;2022-11-25T01:25:28;100942.97;;;0.43;100.00
61908;BME280;47864;52.526;19.672;2022-11-25T01:27:30;100940.22;;;0.46;100.00
61908;BME280;47864;52.526;19.672;2022-11-25T01:29:32;100947.50;;;0.56;100.00
61908;BME280;47864;52.526;19.672;2022-11-25T01:31:35;100944.19;;;0.53;100.00
61908;BME280;47864;52.526;19.672;2022-11-25T01:33:37;100944.59;;;0.45;100.00
61908;BME280;47864;52.526;19.672;2022-11-25T01:35:39;100949.50;;;0.51;100.00
61908;BME280;47864;52.526;19.672;2022-11-25T01:37:41;100956.00;;;0.60;100.00
61908;BME280;47864;52.526;19.672;2022-11-25T01:39:43;100949.41;;;0.70;100.00
61908;BME280;47864;52.526;19.672;2022-11-25T01:41:45;100955.97;;;0.77;100.00
61908;BME280;47864;52.526;19.672;2022-11-25T01:44:12;100955.56;;;0.85;100.00
61908;BME280;47864;52.526;19.672;2022-11-25T01:46:23;100952.03;;;0.86;100.00
61908;BME280;47864;52.526;19.672;2022-11-25T01:48:35;100917.81;;;0.74;100.00
61908;BME280;47864;52.526;19.672;2022-11-25T01:50:40;100949.13;;;1.07;100.00
61908;BME280;47864;52.526;19.672;2022-11-25T01:52:45;100956.03;;;1.08;100.00
61908;BME280;47864;52.526;19.672;2022-11-25T01:54:56;100959.31;;;0.96;100.00
61908;BME280;47864;52.526;19.672;2022-11-25T01:57:20;100955.78;;;0.97;100.00
61908;BME280;47864;52.526;19.672;2022-11-25T01:59:25;100972.81;;;1.04;100.00
61908;BME280;47864;52.526;19.672;2022-11-25T02:01:28;100966.84;;;1.02;100.00
61908;BME280;47864;52.526;19.672;2022-11-25T02:03:37;100972.13;;;1.01;100.00
61908;BME280;47864;52.526;19.672;2022-11-25T02:05:57;100978.38;;;0.98;100.00
61908;BME280;47864;52.526;19.672;2022-11-25T02:08:05;100979.22;;;0.99;100.00
61908;BME280;47864;52.526;19.672;2022-11-25T02:10:11;100981.19;;;1.11;100.00
61908;BME280;47864;52.526;19.672;2022-11-25T02:12:15;100972.13;;;1.01;100.00
61908;BME280;47864;52.526;19.672;2022-11-25T02:14:20;100973.59;;;1.06;100.00
61908;BME280;47864;52.526;19.672;2022-11-25T02:16:22;100978.13;;;1.03;100.00
61908;BME280;47864;52.526;19.672;2022-11-25T02:18:25;100976.66;;;1.14;100.00
61908;BME280;47864;52.526;19.672;2022-11-25T02:20:27;100968.03;;;1.12;100.00
61908;BME280;47864;52.526;19.672;2022-11-25T02:25:21;100969.69;;;0.98;100.00
61908;BME280;47864;52.526;19.672;2022-11-25T02:27:24;100979.31;;;0.97;100.00
61908;BME280;47864;52.526;19.672;2022-11-25T02:29:26;100981.53;;;0.88;100.00
61908;BME280;47864;52.526;19.672;2022-11-25T02:31:29;100983.91;;;0.92;100.00
61908;BME280;47864;52.526;19.672;2022-11-25T02:33:30;100980.44;;;0.92;100.00
61908;BME280;47864;52.526;19.672;2022-11-25T02:35:56;100984.16;;;0.88;100.00
61908;BME280;47864;52.526;19.672;2022-11-25T02:38:20;100993.16;;;0.82;100.00
61908;BME280;47864;52.526;19.672;2022-11-25T02:40:25;100994.69;;;0.69;100.00
61908;BME280;47864;52.526;19.672;2022-11-25T02:42:28;100989.16;;;0.75;100.00
61908;BME280;47864;52.526;19.672;2022-11-25T02:44:31;100996.44;;;0.86;100.00
61908;BME280;47864;52.526;19.672;2022-11-25T02:46:33;100992.22;;;0.83;100.00
61908;BME280;47864;52.526;19.672;2022-11-25T02:48:37;100990.44;;;0.84;100.00
61908;BME280;47864;52.526;19.672;2022-11-25T02:50:59;100998.44;;;0.81;100.00
61908;BME280;47864;52.526;19.672;2022-11-25T02:53:01;100988.09;;;0.62;100.00
61908;BME280;47864;52.526;19.672;2022-11-25T02:55:03;100995.41;;;0.72;100.00
61908;BME280;47864;52.526;19.672;2022-11-25T02:57:05;101002.34;;;0.89;100.00
61908;BME280;47864;52.526;19.672;2022-11-25T02:59:07;101002.44;;;0.88;100.00
61908;BME280;47864;52.526;19.672;2022-11-25T03:01:09;101005.25;;;0.83;100.00
61908;BME280;47864;52.526;19.672;2022-11-25T03:03:12;100996.41;;;1.03;100.00
61908;BME280;47864;52.526;19.672;2022-11-25T03:05:14;100993.47;;;1.09;100.00
61908;BME280;47864;52.526;19.672;2022-11-25T03:07:16;100999.09;;;1.01;100.00
61908;BME280;47864;52.526;19.672;2022-11-25T03:09:17;101002.63;;;1.00;100.00
61908;BME280;47864;52.526;19.672;2022-11-25T03:11:19;101008.38;;;0.74;100.00
61908;BME280;47864;52.526;19.672;2022-11-25T03:13:21;101003.63;;;0.65;100.00
61908;BME280;47864;52.526;19.672;2022-11-25T03:15:23;101010.22;;;0.72;100.00
61908;BME280;47864;52.526;19.672;2022-11-25T03:17:25;101006.69;;;0.56;100.00
61908;BME280;47864;52.526;19.672;2022-11-25T03:19:27;101001.63;;;0.53;100.00
61908;BME280;47864;52.526;19.672;2022-11-25T03:21:29;101001.16;;;0.45;100.00
61908;BME280;47864;52.526;19.672;2022-11-25T03:23:30;100988.72;;;0.50;100.00
61908;BME280;47864;52.526;19.672;2022-11-25T03:25:34;101007.75;;;0.52;100.00
61908;BME280;47864;52.526;19.672;2022-11-25T03:27:37;101009.75;;;0.47;100.00
61908;BME280;47864;52.526;19.672;2022-11-25T03:29:39;101006.69;;;0.56;100.00
61908;BME280;47864;52.526;19.672;2022-11-25T03:31:41;101008.38;;;0.57;100.00
61908;BME280;47864;52.526;19.672;2022-11-25T03:33:43;101008.00;;;0.64;100.00
61908;BME280;47864;52.526;19.672;2022-11-25T03:35:47;101012.59;;;0.59;100.00
61908;BME280;47864;52.526;19.672;2022-11-25T03:37:48;101009.28;;;0.73;100.00
61908;BME280;47864;52.526;19.672;2022-11-25T03:39:50;101011.72;;;0.93;100.00
61908;BME280;47864;52.526;19.672;2022-11-25T03:41:52;101009.72;;;0.98;100.00
61908;BME280;47864;52.526;19.672;2022-11-25T03:43:54;101010.38;;;1.02;100.00
61908;BME280;47864;52.526;19.672;2022-11-25T03:45:56;101008.81;;;0.82;100.00
61908;BME280;47864;52.526;19.672;2022-11-25T03:47:58;101008.38;;;0.74;100.00
61908;BME280;47864;52.526;19.672;2022-11-25T03:49:59;101019.50;;;0.77;100.00
61908;BME280;47864;52.526;19.672;2022-11-25T03:52:01;101012.69;;;0.91;100.00
61908;BME280;47864;52.526;19.672;2022-11-25T03:54:06;101015.16;;;0.94;100.00
61908;BME280;47864;52.526;19.672;2022-11-25T03:56:12;101012.81;;;0.89;100.00
61908;BME280;47864;52.526;19.672;2022-11-25T03:58:14;101017.84;;;0.92;100.00
61908;BME280;47864;52.526;19.672;2022-11-25T04:00:16;101013.50;;;0.75;100.00
61908;BME280;47864;52.526;19.672;2022-11-25T04:02:17;101019.41;;;0.79;100.00
61908;BME280;47864;52.526;19.672;2022-11-25T04:04:19;101016.88;;;0.77;100.00
61908;BME280;47864;52.526;19.672;2022-11-25T04:06:22;101017.41;;;0.84;100.00
61908;BME280;47864;52.526;19.672;2022-11-25T04:08:23;101016.34;;;0.88;100.00
61908;BME280;47864;52.526;19.672;2022-11-25T04:10:25;101012.44;;;0.80;100.00
61908;BME280;47864;52.526;19.672;2022-11-25T04:12:27;101015.31;;;0.91;100.00
61908;BME280;47864;52.526;19.672;2022-11-25T04:14:29;101018.56;;;0.61;100.00
61908;BME280;47864;52.526;19.672;2022-11-25T04:16:31;101014.59;;;0.71;100.00
61908;BME280;47864;52.526;19.672;2022-11-25T04:18:33;101019.16;;;0.84;100.00
61908;BME280;47864;52.526;19.672;2022-11-25T04:20:35;101019.34;;;0.81;100.00
61908;BME280;47864;52.526;19.672;2022-11-25T04:22:37;101018.31;;;0.83;100.00
61908;BME280;47864;52.526;19.672;2022-11-25T04:24:38;101019.63;;;0.92;100.00
61908;BME280;47864;52.526;19.672;2022-11-25T04:26:40;101019.03;;;0.87;100.00
61908;BME280;47864;52.526;19.672;2022-11-25T04:28:42;101020.38;;;0.94;100.00
61908;BME280;47864;52.526;19.672;2022-11-25T04:30:44;101012.81;;;0.89;100.00
61908;BME280;47864;52.526;19.672;2022-11-25T04:32:46;101017.84;;;0.92;100.00
61908;BME280;47864;52.526;19.672;2022-11-25T04:34:48;101016.25;;;0.90;100.00
61908;BME280;47864;52.526;19.672;2022-11-25T04:36:49;101022.94;;;0.78;100.00
61908;BME280;47864;52.526;19.672;2022-11-25T04:38:51;101025.41;;;0.81;100.00
61908;BME280;47864;52.526;19.672;2022-11-25T04:40:53;101023.41;;;0.86;100.00
61908;BME280;47864;52.526;19.672;2022-11-25T04:42:55;101025.94;;;0.88;100.00
61908;BME280;47864;52.526;19.672;2022-11-25T04:45:09;101025.09;;;0.87;100.00
61908;BME280;47864;52.526;19.672;2022-11-25T04:47:24;101020.19;;;0.81;100.00
61908;BME280;47864;52.526;19.672;2022-11-25T04:49:25;101027.25;;;0.79;100.00
61908;BME280;47864;52.526;19.672;2022-11-25T04:51:27;101023.53;;;0.83;100.00
61908;BME280;47864;52.526;19.672;2022-11-25T04:53:29;101029.72;;;0.82;100.00
61908;BME280;47864;52.526;19.672;2022-11-25T04:55:31;101025.09;;;0.70;100.00
61908;BME280;47864;52.526;19.672;2022-11-25T04:57:32;101028.56;;;0.70;100.00
61908;BME280;47864;52.526;19.672;2022-11-25T04:59:34;101033.31;;;0.62;100.00
61908;BME280;47864;52.526;19.672;2022-11-25T05:01:36;101026.94;;;0.68;100.00
61908;BME280;47864;52.526;19.672;2022-11-25T05:03:38;101031.69;;;0.77;100.00
61908;BME280;47864;52.526;19.672;2022-11-25T05:05:47;101029.09;;;0.77;100.00
61908;BME280;47864;52.526;19.672;2022-11-25T05:07:49;101020.47;;;0.58;100.00
61908;BME280;47864;52.526;19.672;2022-11-25T05:09:51;101037.09;;;0.74;100.00
61908;BME280;47864;52.526;19.672;2022-11-25T05:11:53;101036.78;;;0.63;100.00
61908;BME280;47864;52.526;19.672;2022-11-25T05:13:54;101035.47;;;0.71;100.00
61908;BME280;47864;52.526;19.672;2022-11-25T05:15:58;101035.69;;;0.67;100.00
61908;BME280;47864;52.526;19.672;2022-11-25T05:18:00;101038.75;;;0.75;100.00
61908;BME280;47864;52.526;19.672;2022-11-25T05:20:02;101046.22;;;0.65;100.00
61908;BME280;47864;52.526;19.672;2022-11-25T05:22:04;101044.16;;;0.55;100.00
61908;BME280;47864;52.526;19.672;2022-11-25T05:24:05;101035.09;;;0.62;100.00
61908;BME280;47864;52.526;19.672;2022-11-25T05:26:07;101049.84;;;0.80;100.00
61908;BME280;47864;52.526;19.672;2022-11-25T05:28:09;101049.13;;;0.76;100.00
61908;BME280;47864;52.526;19.672;2022-11-25T05:30:11;101047.16;;;0.64;100.00
61908;BME280;47864;52.526;19.672;2022-11-25T05:32:13;101048.97;;;0.80;100.00
61908;BME280;47864;52.526;19.672;2022-11-25T05:34:15;101046.81;;;0.88;100.00
61908;BME280;47864;52.526;19.672;2022-11-25T05:36:17;101051.88;;;0.91;100.00
61908;BME280;47864;52.526;19.672;2022-11-25T05:38:19;101058.44;;;0.82;100.00
61908;BME280;47864;52.526;19.672;2022-11-25T05:40:20;101052.25;;;1.00;100.00
61908;BME280;47864;52.526;19.672;2022-11-25T05:42:22;101057.59;;;0.99;100.00
61908;BME280;47864;52.526;19.672;2022-11-25T05:44:24;101063.34;;;0.88;100.00
61908;BME280;47864;52.526;19.672;2022-11-25T05:46:26;101063.09;;;0.93;100.00
61908;BME280;47864;52.526;19.672;2022-11-25T05:48:28;101061.31;;;0.93;100.00
61908;BME280;47864;52.526;19.672;2022-11-25T05:50:30;101065.69;;;0.93;100.00
61908;BME280;47864;52.526;19.672;2022-11-25T05:52:32;101063.47;;;1.02;100.00
61908;BME280;47864;52.526;19.672;2022-11-25T05:54:34;101064.25;;;1.04;100.00
61908;BME280;47864;52.526;19.672;2022-11-25T05:56:36;101065.94;;;1.05;100.00
61908;BME280;47864;52.526;19.672;2022-11-25T05:58:38;101064.06;;;1.07;100.00
61908;BME280;47864;52.526;19.672;2022-11-25T06:00:41;101063.53;;;1.01;100.00
61908;BME280;47864;52.526;19.672;2022-11-25T06:02:43;101074.91;;;1.00;100.00
61908;BME280;47864;52.526;19.672;2022-11-25T06:04:45;101069.28;;;1.07;100.00
61908;BME280;47864;52.526;19.672;2022-11-25T06:06:47;101075.53;;;1.05;100.00
61908;BME280;47864;52.526;19.672;2022-11-25T06:08:49;101091.75;;;1.11;100.00
61908;BME280;47864;52.526;19.672;2022-11-25T06:10:51;101080.81;;;1.21;100.00
61908;BME280;47864;52.526;19.672;2022-11-25T06:12:53;101089.50;;;1.21;100.00
61908;BME280;47864;52.526;19.672;2022-11-25T06:14:54;101088.59;;;1.22;100.00
61908;BME280;47864;52.526;19.672;2022-11-25T06:16:56;101083.09;;;1.27;100.00
61908;BME280;47864;52.526;19.672;2022-11-25T06:18:58;101085.56;;;1.30;100.00
61908;BME280;47864;52.526;19.672;2022-11-25T06:21:02;101090.63;;;1.33;100.00
61908;BME280;47864;52.526;19.672;2022-11-25T06:23:05;101094.41;;;1.27;100.00
61908;BME280;47864;52.526;19.672;2022-11-25T06:25:07;101093.63;;;1.25;100.00
61908;BME280;47864;52.526;19.672;2022-11-25T06:27:09;101096.88;;;1.30;100.00
61908;BME280;47864;52.526;19.672;2022-11-25T06:29:10;101096.25;;;1.25;100.00
61908;BME280;47864;52.526;19.672;2022-11-25T06:31:18;101097.34;;;1.21;100.00
61908;BME280;47864;52.526;19.672;2022-11-25T06:33:20;101102.03;;;1.14;100.00
61908;BME280;47864;52.526;19.672;2022-11-25T06:35:21;101102.03;;;1.14;100.00
61908;BME280;47864;52.526;19.672;2022-11-25T06:37:23;101094.88;;;1.18;100.00
61908;BME280;47864;52.526;19.672;2022-11-25T06:39:25;101099.69;;;1.26;100.00
61908;BME280;47864;52.526;19.672;2022-11-25T06:41:27;101105.78;;;1.26;100.00
61908;BME280;47864;52.526;19.672;2022-11-25T06:43:29;101103.09;;;1.28;100.00
61908;BME280;47864;52.526;19.672;2022-11-25T06:45:31;101103.59;;;1.34;100.00
61908;BME280;47864;52.526;19.672;2022-11-25T06:47:33;101106.28;;;1.33;100.00
61908;BME280;47864;52.526;19.672;2022-11-25T06:49:35;101102.03;;;1.14;100.00
61908;BME280;47864;52.526;19.672;2022-11-25T06:51:36;101105.00;;;1.24;100.00
61908;BME280;47864;52.526;19.672;2022-11-25T06:53:39;101109.94;;;1.30;100.00
61908;BME280;47864;52.526;19.672;2022-11-25T06:55:41;101101.41;;;1.27;100.00
61908;BME280;47864;52.526;19.672;2022-11-25T06:57:42;101097.00;;;1.27;100.00
61908;BME280;47864;52.526;19.672;2022-11-25T06:59:44;101111.44;;;1.34;100.00
61908;BME280;47864;52.526;19.672;2022-11-25T07:01:46;101102.03;;;1.32;100.00
61908;BME280;47864;52.526;19.672;2022-11-25T07:03:51;101107.00;;;1.36;100.00
61908;BME280;47864;52.526;19.672;2022-11-25T07:05:55;101120.91;;;1.37;100.00
61908;BME280;47864;52.526;19.672;2022-11-25T07:07:57;101118.03;;;1.41;100.00
61908;BME280;47864;52.526;19.672;2022-11-25T07:09:59;101119.06;;;1.39;100.00
61908;BME280;47864;52.526;19.672;2022-11-25T07:12:01;101121.50;;;1.42;100.00
61908;BME280;47864;52.526;19.672;2022-11-25T07:14:05;101125.88;;;1.41;100.00
61908;BME280;47864;52.526;19.672;2022-11-25T07:16:07;101119.34;;;1.50;100.00
61908;BME280;47864;52.526;19.672;2022-11-25T07:18:09;101129.31;;;1.59;100.00
61908;BME280;47864;52.526;19.672;2022-11-25T07:20:11;101117.00;;;1.61;100.00
61908;BME280;47864;52.526;19.672;2022-11-25T07:22:13;101126.06;;;1.71;100.00
61908;BME280;47864;52.526;19.672;2022-11-25T07:24:16;101122.28;;;1.77;100.00
61908;BME280;47864;52.526;19.672;2022-11-25T07:26:23;101122.41;;;1.74;100.00
61908;BME280;47864;52.526;19.672;2022-11-25T07:28:25;101117.63;;;1.82;100.00
61908;BME280;47864;52.526;19.672;2022-11-25T07:30:28;101123.63;;;1.84;100.00
61908;BME280;47864;52.526;19.672;2022-11-25T07:32:50;101124.13;;;1.90;100.00
61908;BME280;47864;52.526;19.672;2022-11-25T07:34:51;101120.84;;;1.87;100.00
61908;BME280;47864;52.526;19.672;2022-11-25T07:36:53;101122.91;;;1.98;100.00
61908;BME280;47864;52.526;19.672;2022-11-25T07:38:57;101120.59;;;1.91;100.00
61908;BME280;47864;52.526;19.672;2022-11-25T07:41:22;101123.81;;;1.97;100.00
61908;BME280;47864;52.526;19.672;2022-11-25T07:43:24;101116.88;;;1.80;100.00
61908;BME280;47864;52.526;19.672;2022-11-25T07:45:26;101123.63;;;2.00;100.00
61908;BME280;47864;52.526;19.672;2022-11-25T07:47:28;101125.84;;;2.07;100.00
61908;BME280;47864;52.526;19.672;2022-11-25T07:49:30;101122.91;;;2.13;100.00
61908;BME280;47864;52.526;19.672;2022-11-25T07:51:34;101114.44;;;2.24;100.00
61908;BME280;47864;52.526;19.672;2022-11-25T07:53:36;101116.75;;;2.30;100.00
61908;BME280;47864;52.526;19.672;2022-11-25T07:55:38;101117.16;;;2.38;100.00
61908;BME280;47864;52.526;19.672;2022-11-25T07:57:40;101122.81;;;2.46;100.00
61908;BME280;47864;52.526;19.672;2022-11-25T07:59:42;101121.84;;;2.47;100.00
61908;BME280;47864;52.526;19.672;2022-11-25T08:01:44;101127.50;;;2.55;100.00
61908;BME280;47864;52.526;19.672;2022-11-25T08:03:48;101120.47;;;2.56;100.00
61908;BME280;47864;52.526;19.672;2022-11-25T08:05:50;101127.16;;;2.61;100.00
61908;BME280;47864;52.526;19.672;2022-11-25T08:07:52;101123.88;;;2.58;100.00
61908;BME280;47864;52.526;19.672;2022-11-25T08:09:53;101128.00;;;2.62;100.00
61908;BME280;47864;52.526;19.672;2022-11-25T08:11:55;101129.50;;;2.66;100.00
61908;BME280;47864;52.526;19.672;2022-11-25T08:13:58;101135.59;;;2.66;100.00
61908;BME280;47864;52.526;19.672;2022-11-25T08:16:00;101136.34;;;2.68;100.00
61908;BME280;47864;52.526;19.672;2022-11-25T08:18:02;101134.50;;;2.71;100.00
61908;BME280;47864;52.526;19.672;2022-11-25T08:20:04;101137.00;;;2.72;100.00
61908;BME280;47864;52.526;19.672;2022-11-25T08:22:06;101134.75;;;2.66;100.00
61908;BME280;47864;52.526;19.672;2022-11-25T08:24:16;101133.97;;;2.80;100.00
61908;BME280;47864;52.526;19.672;2022-11-25T08:28:22;101134.22;;;2.75;100.00
61908;BME280;47864;52.526;19.672;2022-11-25T08:30:24;101144.47;;;2.80;100.00
61908;BME280;47864;52.526;19.672;2022-11-25T08:32:26;101137.56;;;2.93;100.00
61908;BME280;47864;52.526;19.672;2022-11-25T08:34:27;101145.34;;;2.94;100.00
61908;BME280;47864;52.526;19.672;2022-11-25T08:36:30;101149.69;;;2.64;100.00
61908;BME280;47864;52.526;19.672;2022-11-25T08:38:32;101144.53;;;2.78;100.00
61908;BME280;47864;52.526;19.672;2022-11-25T08:40:35;101138.69;;;2.73;100.00
61908;BME280;47864;52.526;19.672;2022-11-25T08:42:37;101142.16;;;2.74;100.00
61908;BME280;47864;52.526;19.672;2022-11-25T08:44:39;101155.16;;;2.91;100.00
61908;BME280;47864;52.526;19.672;2022-11-25T08:46:41;101160.59;;;2.88;100.00
61908;BME280;47864;52.526;19.672;2022-11-25T08:48:43;101158.16;;;2.99;100.00
61908;BME280;47864;52.526;19.672;2022-11-25T08:50:48;101157.16;;;3.01;100.00
61908;BME280;47864;52.526;19.672;2022-11-25T08:52:51;101163.03;;;3.05;100.00
61908;BME280;47864;52.526;19.672;2022-11-25T08:54:53;101168.50;;;3.02;100.00
61908;BME280;47864;52.526;19.672;2022-11-25T08:56:55;101169.41;;;3.01;100.00
61908;BME280;47864;52.526;19.672;2022-11-25T08:58:57;101168.25;;;2.91;100.00
61908;BME280;47864;52.526;19.672;2022-11-25T09:00:58;101157.97;;;2.88;100.00
61908;BME280;47864;52.526;19.672;2022-11-25T09:03:00;101173.56;;;2.89;100.00
61908;BME280;47864;52.526;19.672;2022-11-25T09:05:05;101168.63;;;2.69;100.00
61908;BME280;47864;52.526;19.672;2022-11-25T09:07:06;101167.72;;;2.54;100.00
61908;BME280;47864;52.526;19.672;2022-11-25T09:09:09;101171.91;;;2.73;100.00
61908;BME280;47864;52.526;19.672;2022-11-25T09:11:11;101175.91;;;2.80;100.00
61908;BME280;47864;52.526;19.672;2022-11-25T09:13:13;101179.59;;;2.76;100.00
61908;BME280;47864;52.526;19.672;2022-11-25T09:15:14;101176.63;;;2.82;100.00
61908;BME280;47864;52.526;19.672;2022-11-25T09:17:16;101171.69;;;2.61;100.00
61908;BME280;47864;52.526;19.672;2022-11-25T09:19:19;101181.41;;;2.59;100.00
61908;BME280;47864;52.526;19.672;2022-11-25T09:21:21;101162.91;;;2.62;100.00
61908;BME280;47864;52.526;19.672;2022-11-25T09:23:23;101176.13;;;2.75;100.00
61908;BME280;47864;52.526;19.672;2022-11-25T09:25:25;101155.38;;;2.56;100.00
61908;BME280;47864;52.526;19.672;2022-11-25T09:27:27;101175.69;;;2.83;100.00
61908;BME280;47864;52.526;19.672;2022-11-25T09:29:29;101176.38;;;2.86;100.00
61908;BME280;47864;52.526;19.672;2022-11-25T09:31:30;101177.72;;;2.93;100.00
61908;BME280;47864;52.526;19.672;2022-11-25T09:33:33;101173.53;;;2.59;100.00
61908;BME280;47864;52.526;19.672;2022-11-25T09:35:35;101176.81;;;2.47;100.00
61908;BME280;47864;52.526;19.672;2022-11-25T09:37:37;101179.47;;;2.63;100.00
61908;BME280;47864;52.526;19.672;2022-11-25T09:39:39;101175.66;;;2.68;100.00
61908;BME280;47864;52.526;19.672;2022-11-25T09:41:56;101179.75;;;2.73;100.00
61908;BME280;47864;52.526;19.672;2022-11-25T09:44:06;101176.72;;;2.64;100.00
61908;BME280;47864;52.526;19.672;2022-11-25T09:51:10;101189.53;;;2.55;100.00
61908;BME280;47864;52.526;19.672;2022-11-25T09:55:39;101184.44;;;2.20;100.00
61908;BME280;47864;52.526;19.672;2022-11-25T10:00:11;101180.41;;;2.46;100.00
61908;BME280;47864;52.526;19.672;2022-11-25T10:02:33;101186.56;;;2.61;100.00
61908;BME280;47864;52.526;19.672;2022-11-25T10:04:51;101171.94;;;2.57;100.00
61908;BME280;47864;52.526;19.672;2022-11-25T10:06:57;101177.69;;;2.48;100.00
61908;BME280;47864;52.526;19.672;2022-11-25T10:09:10;101179.13;;;2.22;100.00
61908;BME280;47864;52.526;19.672;2022-11-25T10:11:22;101183.44;;;2.39;100.00
61908;BME280;47864;52.526;19.672;2022-11-25T10:13:51;101169.31;;;2.57;100.00
61908;BME280;47864;52.526;19.672;2022-11-25T10:15:58;101180.88;;;2.68;100.00
61908;BME280;47864;52.526;19.672;2022-11-25T10:18:09;101185.19;;;2.70;100.00
61908;BME280;47864;52.526;19.672;2022-11-25T10:22:32;101192.53;;;2.79;100.00
61908;BME280;47864;52.526;19.672;2022-11-25T10:24:34;101192.44;;;2.80;100.00
61908;BME280;47864;52.526;19.672;2022-11-25T10:26:43;101184.75;;;2.77;100.00
61908;BME280;47864;52.526;19.672;2022-11-25T10:29:05;101195.72;;;2.84;100.00
61908;BME280;47864;52.526;19.672;2022-11-25T10:31:19;101197.53;;;2.67;100.00
61908;BME280;47864;52.526;19.672;2022-11-25T10:33:25;101205.13;;;2.41;100.00
61908;BME280;47864;52.526;19.672;2022-11-25T10:35:42;101203.19;;;2.13;100.00
61908;BME280;47864;52.526;19.672;2022-11-25T10:37:48;101209.84;;;2.18;100.00
61908;BME280;47864;52.526;19.672;2022-11-25T10:39:52;101203.50;;;2.22;100.00
61908;BME280;47864;52.526;19.672;2022-11-25T10:42:03;101202.47;;;2.09;100.00
61908;BME280;47864;52.526;19.672;2022-11-25T10:44:14;101201.38;;;1.98;100.00
61908;BME280;47864;52.526;19.672;2022-11-25T10:49:06;101203.63;;;1.88;100.00
61908;BME280;47864;52.526;19.672;2022-11-25T10:51:34;101195.97;;;2.01;100.00
61908;BME280;47864;52.526;19.672;2022-11-25T10:53:36;101195.91;;;2.02;100.00
61908;BME280;47864;52.526;19.672;2022-11-25T10:55:39;101195.09;;;1.84;100.00
61908;BME280;47864;52.526;19.672;2022-11-25T10:57:57;101190.44;;;1.89;100.00
61908;BME280;47864;52.526;19.672;2022-11-25T11:00:00;101190.72;;;1.85;100.00